Time;durP1;ratioP1;P1;durP2;ratioP2;P2;SDS_P1;SDS_P2;PMS_P1;PMS_P2;Temp;Humidity;BMP_temperature;BMP_pressure;BME280_temperature;BME280_humidity;BME280_pressure;Samples;Min_cycle;Max_cycle;Signal;HPM_P1;HPM_P2
2021/12/21 00:01:54;;;;;;;16.40;2.90;;;;;;;-0.75;80.23;101109.10;103194;1317;22571;-64
2021/12/21 00:04:25;;;;;;;12.40;2.30;;;;;;;-0.76;80.23;101111.98;103197;1315;22653;-64
2021/12/21 00:06:57;;;;;;;10.70;2.30;;;;;;;-0.77;80.24;101111.20;103144;1316;24323;-64
2021/12/21 00:09:28;;;;;;;13.80;2.50;;;;;;;-0.76;80.21;101113.00;103133;1315;25517;-65
2021/12/21 00:12:01;;;;;;;16.40;2.60;;;;;;;-0.77;80.24;101111.03;103158;1315;22680;-64
2021/12/21 00:14:41;;;;;;;15.20;2.80;;;;;;;-0.77;80.20;101110.33;103288;1314;22651;-64
2021/12/21 00:17:18;;;;;;;15.70;2.50;;;;;;;-0.78;80.24;101113.46;103156;1316;22574;-64
2021/12/21 00:20:06;;;;;;;12.70;2.20;;;;;;;-0.78;80.20;101118.63;103180;1317;22577;-64
2021/12/21 00:23:16;;;;;;;14.60;2.30;;;;;;;-0.78;80.11;101117.69;103092;1316;23117;-64
2021/12/21 00:25:43;;;;;;;13.30;2.20;;;;;;;-0.79;80.18;101117.63;103196;1316;24262;-63
2021/12/21 00:28:14;;;;;;;20.80;3.80;;;;;;;-0.79;80.06;101116.05;103269;1315;22584;-64
2021/12/21 00:30:45;;;;;;;15.70;3.70;;;;;;;-0.80;80.09;101112.19;103144;1315;22580;-64
2021/12/21 00:33:17;;;;;;;21.40;3.80;;;;;;;-0.80;80.07;101112.74;103219;1315;25557;-64
2021/12/21 00:35:48;;;;;;;17.50;3.20;;;;;;;-0.81;80.04;101109.05;103264;1309;24316;-64
2021/12/21 00:38:19;;;;;;;16.10;2.10;;;;;;;-0.81;79.88;101116.49;103156;1313;25672;-64
2021/12/21 00:40:50;;;;;;;10.60;3.00;;;;;;;-0.81;79.74;101121.28;103183;1316;22764;-63
2021/12/21 00:43:20;;;;;;;11.00;3.30;;;;;;;-0.82;79.77;101117.20;103190;1315;24290;-64
2021/12/21 00:45:51;;;;;;;13.90;2.40;;;;;;;-0.83;79.85;101119.78;103278;1315;25630;-64
2021/12/21 00:48:27;;;;;;;14.20;2.30;;;;;;;-0.83;79.78;101117.74;103214;1316;22751;-64
2021/12/21 00:50:59;;;;;;;14.70;2.30;;;;;;;-0.84;79.75;101117.50;103221;1314;22587;-64
2021/12/21 00:53:33;;;;;;;15.10;2.60;;;;;;;-0.84;79.80;101117.58;103307;1316;22661;-64
2021/12/21 00:56:06;;;;;;;13.40;2.20;;;;;;;-0.85;79.81;101119.92;103236;1316;25657;-64
2021/12/21 00:58:37;;;;;;;15.40;2.10;;;;;;;-0.85;79.75;101121.95;103227;1316;22890;-64
2021/12/21 01:01:09;;;;;;;14.10;2.40;;;;;;;-0.85;79.83;101119.91;103205;1315;25517;-64
2021/12/21 01:03:48;;;;;;;14.10;1.90;;;;;;;-0.85;79.86;101117.64;103152;1315;22638;-64
2021/12/21 01:06:25;;;;;;;13.30;2.50;;;;;;;-0.86;79.85;101118.74;103139;1314;22606;-64
2021/12/21 01:09:08;;;;;;;13.40;2.10;;;;;;;-0.87;79.99;101120.05;103097;1315;22574;-64
2021/12/21 01:11:43;;;;;;;10.90;2.00;;;;;;;-0.89;80.10;101120.52;103210;1314;22626;-65
2021/12/21 01:17:20;;;;;;;17.30;3.00;;;;;;;-0.90;80.19;101131.39;99836;1352;545647;-64
2021/12/21 01:20:01;;;;;;;14.70;2.80;;;;;;;-0.95;80.16;101133.61;102489;1328;22689;-64
2021/12/21 01:22:50;;;;;;;14.30;3.40;;;;;;;-0.97;80.32;101136.19;102467;1328;22731;-64
2021/12/21 01:25:31;;;;;;;15.70;3.50;;;;;;;-0.99;80.27;101132.88;102435;1322;22818;-64
2021/12/21 01:28:10;;;;;;;16.10;3.10;;;;;;;-1.01;80.37;101136.47;102383;1322;23137;-64
2021/12/21 01:30:50;;;;;;;14.20;2.80;;;;;;;-1.01;80.37;101133.65;102302;1322;216763;-63
2021/12/21 01:33:37;;;;;;;13.90;2.80;;;;;;;-1.03;80.25;101133.79;102351;1318;25275;-64
2021/12/21 01:36:18;;;;;;;12.00;2.20;;;;;;;-1.06;80.43;101139.17;102401;1318;22567;-63
2021/12/21 01:38:56;;;;;;;16.40;3.30;;;;;;;-1.07;80.45;101143.00;102357;1321;24276;-64
2021/12/21 01:41:34;;;;;;;11.50;2.40;;;;;;;-1.08;80.44;101141.98;102389;1318;24453;-64
2021/12/21 01:44:19;;;;;;;16.20;2.80;;;;;;;-1.09;80.46;101141.89;102408;1325;22572;-64
2021/12/21 01:49:42;;;;;;;18.50;3.00;;;;;;;-1.11;80.59;101143.98;102810;1320;22772;-64
2021/12/21 01:52:16;;;;;;;18.10;2.80;;;;;;;-1.13;80.59;101140.84;102871;1313;22767;-63
2021/12/21 01:54:48;;;;;;;14.00;2.50;;;;;;;-1.14;80.57;101141.13;102666;1316;23273;-64
2021/12/21 01:57:20;;;;;;;14.80;3.00;;;;;;;-1.16;80.65;101138.14;102732;1319;25583;-64
2021/12/21 01:59:51;;;;;;;12.80;2.60;;;;;;;-1.16;80.66;101138.52;102831;1316;24293;-64
2021/12/21 02:02:23;;;;;;;17.90;3.30;;;;;;;-1.17;80.77;101131.80;102939;1318;22572;-63
2021/12/21 02:04:54;;;;;;;16.10;3.30;;;;;;;-1.18;80.75;101131.86;102897;1320;23568;-64
2021/12/21 02:07:25;;;;;;;19.00;4.00;;;;;;;-1.19;80.77;101131.22;102705;1316;22757;-63
2021/12/21 02:09:56;;;;;;;18.90;4.40;;;;;;;-1.20;80.78;101129.42;102708;1316;24444;-63
2021/12/21 02:12:27;;;;;;;13.70;3.10;;;;;;;-1.20;80.84;101125.11;102717;1320;23927;-64
2021/12/21 02:15:00;;;;;;;16.40;3.00;;;;;;;-1.20;80.76;101124.96;102786;1313;25757;-64
2021/12/21 02:20:26;;;;;;;16.50;3.60;;;;;;;-1.22;80.85;101123.38;102652;1315;22705;-64
2021/12/21 02:23:04;;;;;;;13.60;2.60;;;;;;;-1.24;80.96;101122.48;102866;1318;25627;-65
2021/12/21 02:28:36;;;;;;;16.90;3.30;;;;;;;-1.24;81.03;101124.45;102739;1320;24386;-65
2021/12/21 02:31:08;;;;;;;13.20;3.20;;;;;;;-1.27;81.02;101119.18;102702;1316;25655;-64
2021/12/21 02:33:38;;;;;;;15.40;2.90;;;;;;;-1.30;81.07;101122.83;102818;1317;22708;-63
2021/12/21 02:36:10;;;;;;;14.50;3.00;;;;;;;-1.30;80.99;101119.92;102744;1316;24128;-65
2021/12/21 02:38:42;;;;;;;12.70;3.50;;;;;;;-1.31;81.05;101122.02;103011;1313;24240;-64
2021/12/21 02:41:13;;;;;;;12.50;3.10;;;;;;;-1.31;81.12;101116.95;103079;1318;24257;-64
2021/12/21 02:43:45;;;;;;;17.00;3.80;;;;;;;-1.32;81.17;101120.06;103011;1318;22637;-64
2021/12/21 02:46:15;;;;;;;18.70;3.10;;;;;;;-1.31;81.15;101116.88;103064;1317;27846;-65
2021/12/21 02:48:46;;;;;;;15.60;3.00;;;;;;;-1.31;81.25;101111.64;103032;1318;22625;-64
2021/12/21 02:51:18;;;;;;;17.40;3.50;;;;;;;-1.30;81.19;101113.76;102915;1318;25621;-64
2021/12/21 02:53:49;;;;;;;13.40;3.20;;;;;;;-1.30;81.24;101110.77;102968;1316;22614;-65
2021/12/21 02:56:21;;;;;;;14.50;2.70;;;;;;;-1.31;81.24;101113.59;103145;1314;24777;-65
2021/12/21 02:58:52;;;;;;;14.50;3.40;;;;;;;-1.32;81.32;101114.98;103128;1313;25747;-63
2021/12/21 03:01:23;;;;;;;12.30;2.70;;;;;;;-1.34;81.36;101109.02;103187;1310;23114;-65
2021/12/21 03:03:54;;;;;;;17.70;3.10;;;;;;;-1.37;81.55;101108.30;103096;1315;22749;-64
2021/12/21 03:09:38;;;;;;;13.40;3.00;;;;;;;-1.40;81.64;101108.73;102630;1317;24414;-64
2021/12/21 03:12:31;;;;;;;13.10;3.20;;;;;;;-1.41;81.52;101105.59;102628;1316;22631;-63
2021/12/21 03:15:02;;;;;;;11.50;2.30;;;;;;;-1.43;81.49;101097.83;102654;1316;22775;-64
2021/12/21 03:17:33;;;;;;;14.00;2.90;;;;;;;-1.44;81.63;101098.20;102650;1317;24274;-64
2021/12/21 03:20:04;;;;;;;10.80;2.50;;;;;;;-1.46;81.71;101099.36;102665;1316;25967;-64
2021/12/21 03:22:39;;;;;;;15.20;2.20;;;;;;;-1.46;81.73;101102.41;102788;1323;24382;-64
2021/12/21 03:25:12;;;;;;;16.90;3.20;;;;;;;-1.47;81.68;101101.79;102596;1321;23162;-64
2021/12/21 03:27:43;;;;;;;14.60;2.80;;;;;;;-1.47;81.77;101102.56;102812;1318;23770;-63
2021/12/21 03:30:16;;;;;;;13.40;2.70;;;;;;;-1.47;81.66;101100.93;102821;1316;24308;-64
2021/12/21 03:32:47;;;;;;;12.40;2.60;;;;;;;-1.47;81.55;101095.13;102828;1316;24290;-64
2021/12/21 03:35:17;;;;;;;12.60;2.40;;;;;;;-1.46;81.65;101094.84;102615;1317;23263;-64
2021/12/21 03:37:48;;;;;;;13.60;2.20;;;;;;;-1.45;81.59;101096.64;102672;1321;22696;-64
2021/12/21 03:40:19;;;;;;;11.00;2.60;;;;;;;-1.44;81.61;101095.94;102632;1321;25663;-64
2021/12/21 03:42:50;;;;;;;13.00;2.60;;;;;;;-1.44;81.68;101092.56;102663;1317;25531;-64
2021/12/21 03:45:21;;;;;;;11.10;2.60;;;;;;;-1.43;81.69;101096.58;102745;1316;25622;-64
2021/12/21 03:47:52;;;;;;;11.60;2.40;;;;;;;-1.44;81.56;101098.69;102886;1312;22905;-64
2021/12/21 03:50:25;;;;;;;11.60;2.20;;;;;;;-1.44;81.65;101096.25;102978;1312;22708;-64
2021/12/21 03:52:55;;;;;;;15.80;2.80;;;;;;;-1.44;81.62;101094.30;103141;1312;24336;-64
2021/12/21 03:55:27;;;;;;;14.30;2.40;;;;;;;-1.43;81.62;101091.02;102993;1312;27061;-64
2021/12/21 03:57:58;;;;;;;13.00;2.40;;;;;;;-1.42;81.57;101088.67;102939;1317;22693;-64
2021/12/21 04:00:29;;;;;;;14.40;2.60;;;;;;;-1.41;81.53;101086.81;103087;1317;27013;-64
2021/12/21 04:03:00;;;;;;;10.70;2.20;;;;;;;-1.41;81.60;101086.34;102956;1315;22708;-65
2021/12/21 04:05:31;;;;;;;12.30;1.90;;;;;;;-1.41;81.57;101081.26;103151;1316;22599;-64
2021/12/21 04:08:03;;;;;;;12.20;2.50;;;;;;;-1.40;81.49;101087.61;103209;1319;22628;-64
2021/12/21 04:10:34;;;;;;;11.00;2.30;;;;;;;-1.39;81.45;101092.31;103097;1313;24300;-64
2021/12/21 04:13:09;;;;;;;14.80;2.30;;;;;;;-1.39;81.51;101095.21;103112;1313;25643;-64
2021/12/21 04:15:43;;;;;;;13.20;2.50;;;;;;;-1.39;81.42;101094.58;103047;1317;22875;-64
2021/12/21 04:18:16;;;;;;;17.40;3.00;;;;;;;-1.37;81.50;101096.39;102993;1313;22614;-64
2021/12/21 04:20:47;;;;;;;13.10;2.50;;;;;;;-1.36;81.40;101096.95;102993;1312;25632;-64
2021/12/21 04:23:18;;;;;;;12.40;2.70;;;;;;;-1.35;81.34;101100.71;103040;1313;22871;-65
2021/12/21 04:25:49;;;;;;;14.80;3.10;;;;;;;-1.35;81.41;101103.06;103214;1315;24325;-64
2021/12/21 04:28:18;;;;;;;;;;;;;;;-1.36;81.38;101102.27;103050;1311;25538;-64
2021/12/21 04:30:49;;;;;;;16.80;3.00;;;;;;;-1.37;81.48;101106.72;102839;1315;25543;-63
2021/12/21 04:33:18;;;;;;;;;;;;;;;-1.39;81.43;101106.33;102960;1317;25486;-64
2021/12/21 04:35:48;;;;;;;8.90;1.70;;;;;;;-1.39;81.40;101106.55;102919;1310;22598;-64
2021/12/21 04:38:25;;;;;;;10.00;2.00;;;;;;;-1.39;81.35;101109.61;102800;1318;25269;-65
2021/12/21 04:41:05;;;;;;;14.30;2.30;;;;;;;-1.39;81.42;101106.95;102869;1317;23102;-64
2021/12/21 04:43:37;;;;;;;11.60;1.80;;;;;;;-1.39;81.30;101114.29;106743;1319;22555;-63
2021/12/21 04:46:08;;;;;;;12.70;2.10;;;;;;;-1.39;81.40;101115.24;106751;1312;22437;-70
2021/12/21 04:48:39;;;;;;;13.40;2.00;;;;;;;-1.38;81.40;101115.95;106726;1312;23912;-64
2021/12/21 04:51:10;;;;;;;10.50;2.00;;;;;;;-1.37;81.51;101113.22;106713;1312;22276;-61
2021/12/21 04:53:42;;;;;;;9.00;1.60;;;;;;;-1.36;81.33;101122.55;106768;1312;24250;-63
2021/12/21 04:56:13;;;;;;;14.60;2.10;;;;;;;-1.35;81.37;101116.91;106619;1316;22522;-63
2021/12/21 04:58:44;;;;;;;10.00;2.00;;;;;;;-1.33;81.35;101121.55;106541;1302;23976;-70
2021/12/21 05:01:16;;;;;;;9.90;1.90;;;;;;;-1.33;81.49;101125.94;102684;1313;25509;-70
2021/12/21 05:03:48;;;;;;;13.30;2.20;;;;;;;-1.32;81.33;101123.59;106615;1313;22421;-65
2021/12/21 05:06:19;;;;;;;14.20;2.40;;;;;;;-1.31;81.41;101127.05;106628;1318;22273;-68
2021/12/21 05:09:03;;;;;;;13.10;1.80;;;;;;;-1.30;81.52;101127.83;106596;1313;22412;-67
2021/12/21 05:11:36;;;;;;;9.40;1.70;;;;;;;-1.28;81.47;101127.09;106557;1320;22298;-66
2021/12/21 05:14:09;;;;;;;13.50;2.20;;;;;;;-1.28;81.48;101123.25;106606;1319;22456;-68
2021/12/21 05:16:40;;;;;;;8.40;1.60;;;;;;;-1.26;81.53;101125.77;106526;1321;22955;-68
2021/12/21 05:19:11;;;;;;;15.50;2.00;;;;;;;-1.25;81.47;101126.33;106613;1319;22246;-67
2021/12/21 05:21:42;;;;;;;12.70;2.30;;;;;;;-1.25;81.56;101128.37;103977;1313;22578;-67
2021/12/21 05:24:13;;;;;;;11.30;1.70;;;;;;;-1.23;81.59;101133.30;102886;1319;25013;-66
2021/12/21 05:26:44;;;;;;;13.30;2.50;;;;;;;-1.23;81.54;101134.88;102835;1317;24316;-66
2021/12/21 05:29:22;;;;;;;11.20;1.90;;;;;;;-1.24;81.50;101129.14;102921;1313;24518;-66
2021/12/21 05:32:09;;;;;;;12.20;1.90;;;;;;;-1.24;81.57;101133.77;102812;1318;22777;-67
2021/12/21 05:34:44;;;;;;;10.20;1.40;;;;;;;-1.25;81.62;101130.77;102863;1317;25415;-68
2021/12/21 05:37:15;;;;;;;8.90;1.80;;;;;;;-1.27;81.58;101131.40;102775;1313;22564;-67
2021/12/21 05:39:56;;;;;;;12.60;2.20;;;;;;;-1.27;81.69;101137.48;102703;1313;25512;-68
2021/12/21 05:42:27;;;;;;;13.80;2.90;;;;;;;-1.26;81.67;101138.13;102822;1316;24310;-68
2021/12/21 05:44:58;;;;;;;14.90;2.90;;;;;;;-1.26;81.77;101133.05;102863;1314;22765;-69
2021/12/21 05:47:30;;;;;;;13.90;2.00;;;;;;;-1.27;81.84;101135.08;103051;1317;22999;-67
2021/12/21 05:50:03;;;;;;;10.00;1.70;;;;;;;-1.27;81.84;101138.83;103024;1317;24095;-67
2021/12/21 05:52:35;;;;;;;11.50;2.20;;;;;;;-1.27;81.89;101142.19;103048;1319;22777;-68
2021/12/21 05:55:09;;;;;;;13.00;2.60;;;;;;;-1.28;81.89;101140.39;103826;1312;22682;-67
2021/12/21 05:57:40;;;;;;;13.00;2.00;;;;;;;-1.29;81.90;101133.41;103024;1319;24515;-67
2021/12/21 06:00:14;;;;;;;10.40;1.80;;;;;;;-1.30;82.05;101134.65;103038;1313;22814;-67
2021/12/21 06:02:45;;;;;;;10.80;1.80;;;;;;;-1.29;82.17;101130.84;102962;1312;22746;-67
2021/12/21 06:05:16;;;;;;;14.10;2.60;;;;;;;-1.29;82.08;101131.38;103013;1317;22701;-67
2021/12/21 06:07:50;;;;;;;17.30;2.10;;;;;;;-1.27;82.09;101138.29;103151;1316;24313;-67
2021/12/21 06:10:26;;;;;;;15.20;2.60;;;;;;;-1.26;82.07;101140.71;103196;1314;24770;-66
2021/12/21 06:13:19;;;;;;;13.40;2.50;;;;;;;-1.25;82.09;101141.91;103157;1313;26027;-66
2021/12/21 06:16:08;;;;;;;10.10;2.10;;;;;;;-1.25;82.10;101145.35;103226;1316;22578;-67
2021/12/21 06:27:04;;;;;;;14.10;2.30;;;;;;;-1.24;81.94;101154.44;103139;1313;22926;-67
2021/12/21 06:29:37;;;;;;;14.80;2.10;;;;;;;-1.24;81.94;101160.29;102872;1315;22635;-67
2021/12/21 06:32:11;;;;;;;13.50;2.50;;;;;;;-1.24;81.95;101158.98;102875;1319;23143;-67
2021/12/21 06:34:43;;;;;;;11.40;2.40;;;;;;;-1.25;82.02;101151.60;103093;1315;22707;-67
2021/12/21 06:37:15;;;;;;;11.90;2.20;;;;;;;-1.24;82.06;101162.48;102888;1319;22625;-66
2021/12/21 06:39:48;;;;;;;13.00;2.80;;;;;;;-1.24;81.97;101156.85;102718;1316;22668;-67
2021/12/21 06:42:20;;;;;;;13.20;3.10;;;;;;;-1.23;82.10;101154.52;102685;1316;23247;-65
2021/12/21 06:44:55;;;;;;;13.90;2.80;;;;;;;-1.22;81.94;101157.42;102689;1317;22732;-68
2021/12/21 06:53:05;;;;;;;15.00;3.30;;;;;;;-1.22;82.06;101174.64;102752;1321;22619;-67
2021/12/21 06:55:36;;;;;;;16.70;3.00;;;;;;;-1.23;81.97;101175.58;102973;1321;24535;-67
2021/12/21 06:58:08;;;;;;;15.30;3.10;;;;;;;-1.23;82.03;101175.65;102959;1313;25506;-69
2021/12/21 07:00:40;;;;;;;15.00;2.50;;;;;;;-1.23;81.99;101174.96;102720;1321;22672;-67
2021/12/21 07:03:12;;;;;;;14.40;3.00;;;;;;;-1.24;82.06;101172.20;102818;1313;25515;-67
2021/12/21 07:05:44;;;;;;;17.80;3.40;;;;;;;-1.24;81.99;101173.77;103147;1314;24405;-67
2021/12/21 07:08:20;;;;;;;15.20;3.10;;;;;;;-1.24;82.08;101171.25;103415;1312;22677;-68
2021/12/21 07:11:00;;;;;;;18.30;3.90;;;;;;;-1.22;82.14;101171.52;103280;1316;25511;-68
2021/12/21 07:19:10;;;;;;;24.40;5.70;;;;;;;-1.22;82.21;101180.67;103400;1313;23117;-69
2021/12/21 07:21:42;;;;;;;19.90;4.70;;;;;;;-1.23;82.24;101187.31;103520;1313;22623;-67
2021/12/21 07:24:13;;;;;;;22.60;4.80;;;;;;;-1.23;82.35;101186.92;103301;1311;22728;-67
2021/12/21 07:26:44;;;;;;;18.70;4.10;;;;;;;-1.23;82.34;101190.28;103228;1309;25742;-68
2021/12/21 07:29:15;;;;;;;22.10;5.30;;;;;;;-1.24;82.17;101185.89;103276;1313;25527;-68
2021/12/21 07:31:58;;;;;;;22.10;5.20;;;;;;;-1.23;82.37;101189.73;103484;1312;22639;-67
2021/12/21 07:34:30;;;;;;;20.60;5.50;;;;;;;-1.22;82.39;101192.96;103487;1310;24433;-68
2021/12/21 07:37:02;;;;;;;18.70;4.20;;;;;;;-1.21;82.36;101196.89;103163;1314;22728;-67
2021/12/21 07:39:33;;;;;;;20.70;4.40;;;;;;;-1.22;82.36;101195.23;103604;1311;25668;-67
2021/12/21 07:42:05;;;;;;;16.00;3.50;;;;;;;-1.22;82.35;101193.75;103280;1311;22621;-67
2021/12/21 07:44:37;;;;;;;18.60;4.10;;;;;;;-1.22;82.35;101196.87;103329;1309;22662;-68
2021/12/21 07:47:08;;;;;;;15.40;3.30;;;;;;;-1.23;82.48;101197.17;103452;1311;22595;-68
2021/12/21 07:49:40;;;;;;;20.70;3.90;;;;;;;-1.22;82.41;101191.70;103380;1311;25651;-69
2021/12/21 07:52:14;;;;;;;12.00;2.60;;;;;;;-1.22;82.35;101196.26;103278;1311;22855;-68
2021/12/21 07:54:46;;;;;;;15.90;3.50;;;;;;;-1.22;82.47;101195.70;103257;1309;22736;-66
2021/12/21 07:57:17;;;;;;;14.20;2.70;;;;;;;-1.23;82.50;101198.52;103272;1309;24047;-68
2021/12/21 07:59:50;;;;;;;18.60;3.60;;;;;;;-1.22;82.51;101204.86;103585;1310;23157;-68
2021/12/21 08:02:25;;;;;;;14.50;3.30;;;;;;;-1.20;82.50;101203.62;103568;1310;23137;-69
2021/12/21 08:04:59;;;;;;;14.40;2.00;;;;;;;-1.18;82.52;101199.90;103591;1316;24216;-69
2021/12/21 08:07:36;;;;;;;13.60;2.20;;;;;;;-1.16;82.35;101203.27;103738;1309;22708;-68
2021/12/21 08:10:25;;;;;;;12.00;2.10;;;;;;;-1.17;82.02;101201.61;103483;1312;24346;-68
2021/12/21 08:12:58;;;;;;;9.60;2.20;;;;;;;-1.20;82.00;101202.69;103511;1311;25929;-68
2021/12/21 08:15:29;;;;;;;10.10;1.90;;;;;;;-1.20;81.93;101206.21;103523;1310;22679;-68
2021/12/21 08:18:01;;;;;;;12.80;2.20;;;;;;;-1.19;81.84;101206.70;103236;1309;22610;-67
2021/12/21 08:20:32;;;;;;;10.20;2.10;;;;;;;-1.18;81.75;101207.95;103335;1313;25493;-68
2021/12/21 08:23:05;;;;;;;12.40;1.90;;;;;;;-1.16;81.77;101206.95;103505;1313;23383;-67
2021/12/21 08:25:38;;;;;;;8.00;1.80;;;;;;;-1.14;81.73;101208.23;103515;1313;26505;-68
2021/12/21 08:28:11;;;;;;;9.00;1.90;;;;;;;-1.11;81.52;101210.44;103580;1310;25616;-66
2021/12/21 08:31:10;;;;;;;11.70;2.40;;;;;;;-1.09;81.59;101210.63;103548;1309;22570;-68
2021/12/21 08:34:22;;;;;;;;;;;;;;;;;;;;;
2021/12/21 08:37:21;;;;;;;9.40;2.10;;;;;;;-1.03;81.33;101211.63;102905;1318;22757;-69
2021/12/21 08:39:59;;;;;;;11.00;1.90;;;;;;;-1.01;81.29;101214.38;103172;1315;22635;-69
2021/12/21 08:42:32;;;;;;;9.00;1.70;;;;;;;-0.97;81.25;101215.75;102994;1313;23502;-68
2021/12/21 08:45:06;;;;;;;12.60;2.00;;;;;;;-0.95;81.15;101221.40;102860;1313;22698;-68
2021/12/21 08:47:37;;;;;;;13.60;2.90;;;;;;;-0.93;81.26;101224.81;102895;1318;22636;-67
2021/12/21 08:50:12;;;;;;;12.90;2.90;;;;;;;-0.88;81.36;101226.42;102824;1315;22897;-69
2021/12/21 08:52:43;;;;;;;20.70;4.70;;;;;;;-0.83;81.39;101228.25;103027;1313;26437;-68
2021/12/21 08:55:18;;;;;;;14.00;3.60;;;;;;;-0.79;81.32;101224.05;103001;1319;22586;-68
2021/12/21 08:57:50;;;;;;;19.20;4.80;;;;;;;-0.77;81.07;101223.45;102911;1313;22637;-68
2021/12/21 09:00:22;;;;;;;17.50;4.70;;;;;;;-0.74;80.87;101229.10;102802;1313;26993;-66
2021/12/21 09:02:54;;;;;;;16.90;3.50;;;;;;;-0.72;80.95;101226.79;102959;1318;22810;-68
2021/12/21 09:05:27;;;;;;;18.80;4.60;;;;;;;-0.68;80.90;101225.33;102880;1318;24290;-68
2021/12/21 09:07:59;;;;;;;12.10;2.50;;;;;;;-0.66;80.72;101224.41;102883;1320;25824;-67
2021/12/21 09:10:31;;;;;;;15.30;3.00;;;;;;;-0.64;80.70;101224.81;103043;1313;22752;-68
2021/12/21 09:13:04;;;;;;;16.40;3.40;;;;;;;-0.64;80.71;101221.67;102827;1313;24320;-67
2021/12/21 09:15:36;;;;;;;15.70;3.70;;;;;;;-0.61;80.79;101223.83;102912;1315;24438;-67
2021/12/21 09:18:07;;;;;;;19.00;4.70;;;;;;;-0.59;80.77;101227.92;102912;1315;22634;-68
2021/12/21 09:20:39;;;;;;;15.40;2.70;;;;;;;-0.56;80.78;101228.48;102848;1313;23966;-67
2021/12/21 09:23:11;;;;;;;14.10;3.00;;;;;;;-0.53;80.76;101229.13;103275;1310;22789;-69
2021/12/21 09:25:43;;;;;;;15.90;3.30;;;;;;;-0.53;80.37;101233.52;103407;1310;25619;-68
2021/12/21 09:28:14;;;;;;;15.80;3.50;;;;;;;-0.54;80.55;101233.37;103316;1309;24405;-68
2021/12/21 09:30:47;;;;;;;17.40;4.40;;;;;;;-0.51;80.75;101235.03;102404;1315;1269227;-69
2021/12/21 09:33:18;;;;;;;14.30;3.00;;;;;;;-0.46;80.60;101232.88;103592;1309;24320;-67
2021/12/21 09:35:52;;;;;;;16.40;3.20;;;;;;;-0.46;80.38;101231.86;103686;1313;24211;-68
2021/12/21 09:38:23;;;;;;;16.90;3.20;;;;;;;-0.46;80.43;101230.99;103420;1309;22644;-69
2021/12/21 09:40:57;;;;;;;16.60;3.50;;;;;;;-0.44;80.43;101233.75;103262;1313;24385;-66
2021/12/21 09:43:30;;;;;;;14.90;3.70;;;;;;;-0.45;80.00;101229.59;103650;1315;22587;-67
2021/12/21 09:46:02;;;;;;;14.50;3.00;;;;;;;-0.46;80.09;101226.92;103301;1314;23125;-67
2021/12/21 09:48:33;;;;;;;16.50;4.30;;;;;;;-0.44;80.31;101228.42;103295;1309;24273;-67
2021/12/21 09:51:05;;;;;;;15.20;3.30;;;;;;;-0.40;80.44;101230.32;103539;1314;24358;-65
2021/12/21 09:53:38;;;;;;;14.30;3.30;;;;;;;-0.37;80.37;101228.70;103495;1313;25508;-65
2021/12/21 09:56:12;;;;;;;15.50;3.50;;;;;;;-0.34;80.24;101226.30;103387;1316;22631;-65
2021/12/21 09:58:45;;;;;;;19.10;4.20;;;;;;;-0.33;80.12;101226.32;103541;1310;25249;-66
2021/12/21 10:01:20;;;;;;;15.30;2.90;;;;;;;-0.31;80.10;101224.99;103398;1310;22631;-65
2021/12/21 10:03:54;;;;;;;13.40;2.90;;;;;;;-0.29;80.04;101220.30;103181;1310;22695;-65
2021/12/21 10:06:25;;;;;;;15.40;3.30;;;;;;;-0.28;79.72;101219.91;103359;1313;25407;-65
2021/12/21 10:09:08;;;;;;;12.80;3.00;;;;;;;-0.27;79.78;101217.57;103317;1310;25494;-65
2021/12/21 10:11:47;;;;;;;15.00;3.60;;;;;;;-0.26;79.92;101214.13;103488;1310;27877;-66
2021/12/21 10:14:20;;;;;;;15.50;3.50;;;;;;;-0.23;79.89;101216.81;103224;1309;22571;-66
2021/12/21 10:17:02;;;;;;;13.00;2.30;;;;;;;-0.22;79.60;101217.36;103667;1314;22564;-66
2021/12/21 10:19:58;;;;;;;12.60;3.00;;;;;;;-0.20;79.70;101216.52;103629;1310;26737;-66
2021/12/21 10:22:30;;;;;;;13.30;2.70;;;;;;;-0.18;79.40;101219.12;103695;1309;23012;-66
2021/12/21 10:25:26;;;;;;;19.80;3.80;;;;;;;-0.15;79.43;101218.04;103610;1310;25606;-68
2021/12/21 10:28:10;;;;;;;13.00;2.20;;;;;;;-0.12;79.26;101221.90;103565;1306;22726;-69
2021/12/21 10:30:53;;;;;;;11.30;2.20;;;;;;;-0.12;78.69;101221.42;103486;1313;24371;-67
2021/12/21 10:33:27;;;;;;;10.60;1.90;;;;;;;-0.10;78.77;101224.04;103243;1306;22578;-68
2021/12/21 10:36:00;;;;;;;13.90;2.70;;;;;;;-0.06;78.60;101223.19;103216;1307;22560;-68
2021/12/21 10:38:33;;;;;;;10.80;2.40;;;;;;;-0.05;78.23;101225.85;103216;1311;24323;-68
2021/12/21 10:41:15;;;;;;;14.00;2.60;;;;;;;-0.06;78.08;101227.59;103322;1314;24209;-68
2021/12/21 10:43:59;;;;;;;12.80;2.10;;;;;;;-0.02;78.40;101224.08;103468;1311;25530;-68
2021/12/21 10:46:32;;;;;;;10.50;1.80;;;;;;;-0.01;78.08;101220.02;103622;1311;22600;-69
2021/12/21 10:49:11;;;;;;;9.60;2.20;;;;;;;0.01;77.61;101220.09;103433;1307;22720;-68
2021/12/21 10:51:55;;;;;;;10.60;2.30;;;;;;;0.00;77.60;101214.21;103421;1312;23763;-67
2021/12/21 10:54:32;;;;;;;15.10;2.70;;;;;;;0.03;77.72;101211.39;103515;1310;24032;-66
2021/12/21 10:57:05;;;;;;;13.50;2.30;;;;;;;0.06;77.83;101207.58;103433;1306;25381;-67
2021/12/21 10:59:39;;;;;;;12.30;2.00;;;;;;;0.10;77.60;101204.14;103727;1310;22600;-66
2021/12/21 11:02:13;;;;;;;15.90;2.70;;;;;;;0.10;77.54;101204.92;103818;1310;24367;-67
2021/12/21 11:04:48;;;;;;;10.70;2.30;;;;;;;0.11;77.40;101202.88;103694;1312;24272;-67
2021/12/21 11:07:27;;;;;;;11.90;1.90;;;;;;;0.12;76.87;101206.27;103620;1314;22742;-67
2021/12/21 11:10:00;;;;;;;8.80;1.90;;;;;;;0.13;76.60;101206.51;103603;1306;25546;-67
2021/12/21 11:12:44;;;;;;;9.50;1.80;;;;;;;0.13;76.29;101202.66;103323;1311;23148;-67
2021/12/21 11:15:18;;;;;;;11.90;1.80;;;;;;;0.14;75.65;101204.31;103274;1309;22614;-68
2021/12/21 11:17:50;;;;;;;15.80;2.40;;;;;;;0.16;75.75;101207.06;103351;1309;27820;-67
2021/12/21 11:20:21;;;;;;;18.20;3.50;;;;;;;0.20;76.01;101204.66;103410;1310;22593;-68
2021/12/21 11:22:54;;;;;;;15.10;2.50;;;;;;;0.21;75.74;101198.23;103330;1309;24461;-66
2021/12/21 11:25:27;;;;;;;14.40;2.10;;;;;;;0.22;76.02;101202.63;103411;1310;24230;-67
2021/12/21 11:28:00;;;;;;;10.60;2.60;;;;;;;0.25;76.34;101200.14;103312;1309;22582;-68
2021/12/21 11:30:33;;;;;;;11.20;2.20;;;;;;;0.30;76.55;101200.07;103332;1310;22987;-68
2021/12/21 11:33:07;;;;;;;10.80;1.90;;;;;;;0.31;75.99;101195.67;103396;1309;22750;-65
2021/12/21 11:38:28;;;;;;;12.50;3.00;;;;;;;0.30;76.08;101195.13;103277;1309;22589;-65
2021/12/21 11:41:00;;;;;;;16.50;2.50;;;;;;;0.33;76.03;101194.98;103240;1311;25686;-66
2021/12/21 11:43:38;;;;;;;14.70;2.00;;;;;;;0.34;75.08;101195.61;103500;1310;22610;-68
2021/12/21 11:46:12;;;;;;;14.40;2.40;;;;;;;0.36;74.99;101191.45;103575;1310;22749;-66
2021/12/21 11:48:50;;;;;;;13.70;2.30;;;;;;;0.36;75.18;101187.30;103464;1309;25360;-68
2021/12/21 11:51:27;;;;;;;11.20;2.80;;;;;;;0.39;75.92;101185.90;103628;1309;25608;-68
2021/12/21 11:53:59;;;;;;;15.80;2.30;;;;;;;0.43;75.97;101186.23;103243;1307;25561;-68
2021/12/21 11:56:33;;;;;;;13.40;1.90;;;;;;;0.47;75.59;101189.23;103616;1309;24295;-68
2021/12/21 11:59:04;;;;;;;9.80;2.10;;;;;;;0.50;75.47;101182.95;103478;1312;22627;-68
2021/12/21 12:01:36;;;;;;;13.90;2.50;;;;;;;0.53;75.08;101180.05;103314;1315;25504;-67
2021/12/21 12:04:15;;;;;;;15.60;2.20;;;;;;;0.57;75.08;101177.25;103237;1310;22597;-67
2021/12/21 12:06:49;;;;;;;12.10;1.90;;;;;;;0.57;74.51;101176.39;103357;1310;23282;-67
2021/12/21 12:09:28;;;;;;;11.70;2.50;;;;;;;0.55;74.32;101174.10;103426;1311;25290;-67
2021/12/21 12:12:11;;;;;;;9.70;1.90;;;;;;;0.50;74.36;101176.44;103343;1309;23131;-67
2021/12/21 12:14:44;;;;;;;10.80;1.90;;;;;;;0.46;73.89;101177.45;103408;1306;24219;-68
2021/12/21 12:17:18;;;;;;;16.80;2.60;;;;;;;0.43;74.15;101173.36;103470;1309;22866;-67
2021/12/21 12:19:55;;;;;;;14.60;2.40;;;;;;;0.40;74.14;101171.23;103415;1314;22597;-67
2021/12/21 12:22:37;;;;;;;12.80;2.20;;;;;;;0.39;74.12;101175.86;103400;1311;26533;-68